sensor_id;sensor_type;location;lat;lon;timestamp;temperature;humidity
59556;DHT22;45374;52.746;6.304;2023-11-21T00:01:58;8.60;99.90
59556;DHT22;45374;52.746;6.304;2023-11-21T00:04:24;8.60;99.90
59556;DHT22;45374;52.746;6.304;2023-11-21T00:06:50;8.70;99.90
59556;DHT22;45374;52.746;6.304;2023-11-21T00:09:16;8.60;99.90
59556;DHT22;45374;52.746;6.304;2023-11-21T00:11:43;8.70;99.90
59556;DHT22;45374;52.746;6.304;2023-11-21T00:14:10;8.70;99.90
59556;DHT22;45374;52.746;6.304;2023-11-21T00:16:36;8.70;99.90
59556;DHT22;45374;52.746;6.304;2023-11-21T00:19:01;8.70;99.90
59556;DHT22;45374;52.746;6.304;2023-11-21T00:21:27;8.70;99.90
59556;DHT22;45374;52.746;6.304;2023-11-21T00:23:52;8.70;99.90
59556;DHT22;45374;52.746;6.304;2023-11-21T00:26:18;8.70;99.90
59556;DHT22;45374;52.746;6.304;2023-11-21T00:28:44;8.70;99.90
59556;DHT22;45374;52.746;6.304;2023-11-21T00:31:09;8.70;99.90
59556;DHT22;45374;52.746;6.304;2023-11-21T00:33:35;8.80;99.90
59556;DHT22;45374;52.746;6.304;2023-11-21T00:36:00;8.80;99.90
59556;DHT22;45374;52.746;6.304;2023-11-21T00:38:26;8.80;99.90
59556;DHT22;45374;52.746;6.304;2023-11-21T00:40:52;8.80;99.90
59556;DHT22;45374;52.746;6.304;2023-11-21T00:43:24;8.80;99.90
59556;DHT22;45374;52.746;6.304;2023-11-21T00:45:49;8.80;99.90
59556;DHT22;45374;52.746;6.304;2023-11-21T00:48:15;8.90;99.90
59556;DHT22;45374;52.746;6.304;2023-11-21T00:50:41;8.90;99.90
59556;DHT22;45374;52.746;6.304;2023-11-21T00:53:06;8.90;99.90
59556;DHT22;45374;52.746;6.304;2023-11-21T00:55:33;8.90;99.90
59556;DHT22;45374;52.746;6.304;2023-11-21T00:57:58;8.90;99.90
59556;DHT22;45374;52.746;6.304;2023-11-21T01:00:25;8.90;99.90
59556;DHT22;45374;52.746;6.304;2023-11-21T01:02:50;8.90;99.90
59556;DHT22;45374;52.746;6.304;2023-11-21T01:05:16;8.90;99.90
59556;DHT22;45374;52.746;6.304;2023-11-21T01:07:42;8.90;99.90
59556;DHT22;45374;52.746;6.304;2023-11-21T01:10:08;9.00;99.90
59556;DHT22;45374;52.746;6.304;2023-11-21T01:12:35;9.00;99.90
59556;DHT22;45374;52.746;6.304;2023-11-21T01:15:03;9.00;99.90
59556;DHT22;45374;52.746;6.304;2023-11-21T01:17:29;8.90;99.90
59556;DHT22;45374;52.746;6.304;2023-11-21T01:19:54;9.00;99.90
59556;DHT22;45374;52.746;6.304;2023-11-21T01:22:21;9.00;99.90
59556;DHT22;45374;52.746;6.304;2023-11-21T01:24:52;9.00;99.90
59556;DHT22;45374;52.746;6.304;2023-11-21T01:27:17;9.00;99.90
59556;DHT22;45374;52.746;6.304;2023-11-21T01:29:44;9.00;99.90
59556;DHT22;45374;52.746;6.304;2023-11-21T01:32:10;9.00;99.90
59556;DHT22;45374;52.746;6.304;2023-11-21T01:34:36;9.00;99.90
59556;DHT22;45374;52.746;6.304;2023-11-21T01:37:02;9.00;99.90
59556;DHT22;45374;52.746;6.304;2023-11-21T01:39:30;9.00;99.90
59556;DHT22;45374;52.746;6.304;2023-11-21T01:41:55;9.00;99.90
59556;DHT22;45374;52.746;6.304;2023-11-21T01:44:26;9.00;99.90
59556;DHT22;45374;52.746;6.304;2023-11-21T01:46:52;9.00;99.90
59556;DHT22;45374;52.746;6.304;2023-11-21T01:49:19;9.00;99.90
59556;DHT22;45374;52.746;6.304;2023-11-21T01:51:48;9.00;99.90
59556;DHT22;45374;52.746;6.304;2023-11-21T01:54:19;9.00;99.90
59556;DHT22;45374;52.746;6.304;2023-11-21T01:56:46;9.00;99.90
59556;DHT22;45374;52.746;6.304;2023-11-21T01:59:18;9.00;99.90
59556;DHT22;45374;52.746;6.304;2023-11-21T02:01:43;9.00;99.90
59556;DHT22;45374;52.746;6.304;2023-11-21T02:04:09;9.00;99.90
59556;DHT22;45374;52.746;6.304;2023-11-21T02:06:35;9.00;99.90
59556;DHT22;45374;52.746;6.304;2023-11-21T02:09:01;9.00;99.90
59556;DHT22;45374;52.746;6.304;2023-11-21T02:11:26;9.00;99.90
59556;DHT22;45374;52.746;6.304;2023-11-21T02:13:53;9.00;99.90
59556;DHT22;45374;52.746;6.304;2023-11-21T02:16:19;9.00;99.90
59556;DHT22;45374;52.746;6.304;2023-11-21T02:18:47;9.00;99.90
59556;DHT22;45374;52.746;6.304;2023-11-21T02:21:14;9.00;99.90
59556;DHT22;45374;52.746;6.304;2023-11-21T02:23:48;9.00;99.90
59556;DHT22;45374;52.746;6.304;2023-11-21T02:26:14;9.00;99.90
59556;DHT22;45374;52.746;6.304;2023-11-21T02:28:40;9.00;99.90
59556;DHT22;45374;52.746;6.304;2023-11-21T02:31:06;9.00;99.90
59556;DHT22;45374;52.746;6.304;2023-11-21T02:33:33;9.00;99.90
59556;DHT22;45374;52.746;6.304;2023-11-21T02:36:00;9.00;99.90
59556;DHT22;45374;52.746;6.304;2023-11-21T02:38:25;9.00;99.90
59556;DHT22;45374;52.746;6.304;2023-11-21T02:40:51;9.00;99.90
59556;DHT22;45374;52.746;6.304;2023-11-21T02:43:17;9.10;99.90
59556;DHT22;45374;52.746;6.304;2023-11-21T02:45:43;9.00;99.90
59556;DHT22;45374;52.746;6.304;2023-11-21T02:48:08;9.10;99.90
59556;DHT22;45374;52.746;6.304;2023-11-21T02:54:15;9.10;99.90
59556;DHT22;45374;52.746;6.304;2023-11-21T02:56:42;9.10;99.90
59556;DHT22;45374;52.746;6.304;2023-11-21T02:59:07;9.10;99.90
59556;DHT22;45374;52.746;6.304;2023-11-21T03:01:33;9.10;99.90
59556;DHT22;45374;52.746;6.304;2023-11-21T03:03:59;9.10;99.90
59556;DHT22;45374;52.746;6.304;2023-11-21T03:06:25;9.00;99.90
59556;DHT22;45374;52.746;6.304;2023-11-21T03:08:50;9.00;99.90
59556;DHT22;45374;52.746;6.304;2023-11-21T03:11:16;9.00;99.90
59556;DHT22;45374;52.746;6.304;2023-11-21T03:13:41;9.00;99.90
59556;DHT22;45374;52.746;6.304;2023-11-21T03:16:11;9.00;99.90
59556;DHT22;45374;52.746;6.304;2023-11-21T03:18:38;9.00;99.90
59556;DHT22;45374;52.746;6.304;2023-11-21T03:21:05;9.10;99.90
59556;DHT22;45374;52.746;6.304;2023-11-21T03:23:31;9.00;99.90
59556;DHT22;45374;52.746;6.304;2023-11-21T03:25:57;9.10;99.90
59556;DHT22;45374;52.746;6.304;2023-11-21T03:28:25;9.10;99.90
59556;DHT22;45374;52.746;6.304;2023-11-21T03:30:52;9.00;99.90
59556;DHT22;45374;52.746;6.304;2023-11-21T03:33:17;9.10;99.90
59556;DHT22;45374;52.746;6.304;2023-11-21T03:35:43;9.10;99.90
59556;DHT22;45374;52.746;6.304;2023-11-21T03:38:10;9.10;99.90
59556;DHT22;45374;52.746;6.304;2023-11-21T03:40:36;9.10;99.90
59556;DHT22;45374;52.746;6.304;2023-11-21T03:43:01;9.10;99.90
59556;DHT22;45374;52.746;6.304;2023-11-21T03:45:27;9.10;99.90
59556;DHT22;45374;52.746;6.304;2023-11-21T03:47:52;9.10;99.90
59556;DHT22;45374;52.746;6.304;2023-11-21T03:50:18;9.10;99.90
59556;DHT22;45374;52.746;6.304;2023-11-21T03:52:44;9.10;99.90
59556;DHT22;45374;52.746;6.304;2023-11-21T03:55:09;9.10;99.90
59556;DHT22;45374;52.746;6.304;2023-11-21T03:57:36;9.10;99.90
59556;DHT22;45374;52.746;6.304;2023-11-21T04:00:01;9.10;99.90
59556;DHT22;45374;52.746;6.304;2023-11-21T04:02:29;9.10;99.90
59556;DHT22;45374;52.746;6.304;2023-11-21T04:04:57;9.10;99.90
59556;DHT22;45374;52.746;6.304;2023-11-21T04:07:22;9.10;99.90
59556;DHT22;45374;52.746;6.304;2023-11-21T04:09:48;9.10;99.90
59556;DHT22;45374;52.746;6.304;2023-11-21T04:12:13;9.10;99.90
59556;DHT22;45374;52.746;6.304;2023-11-21T04:14:39;9.00;99.90
59556;DHT22;45374;52.746;6.304;2023-11-21T04:17:05;9.10;99.90
59556;DHT22;45374;52.746;6.304;2023-11-21T04:19:30;9.10;99.90
59556;DHT22;45374;52.746;6.304;2023-11-21T04:21:56;9.10;99.90
59556;DHT22;45374;52.746;6.304;2023-11-21T04:24:21;9.10;99.90
59556;DHT22;45374;52.746;6.304;2023-11-21T04:26:47;9.10;99.90
59556;DHT22;45374;52.746;6.304;2023-11-21T04:29:12;9.10;99.90
59556;DHT22;45374;52.746;6.304;2023-11-21T04:31:38;9.10;99.90
59556;DHT22;45374;52.746;6.304;2023-11-21T04:34:04;9.10;99.90
59556;DHT22;45374;52.746;6.304;2023-11-21T04:36:29;9.10;99.90
59556;DHT22;45374;52.746;6.304;2023-11-21T04:38:56;9.10;99.90
59556;DHT22;45374;52.746;6.304;2023-11-21T04:41:22;9.10;99.90
59556;DHT22;45374;52.746;6.304;2023-11-21T04:43:47;9.10;99.90
59556;DHT22;45374;52.746;6.304;2023-11-21T04:46:14;9.10;99.90
59556;DHT22;45374;52.746;6.304;2023-11-21T04:48:40;9.10;99.90
59556;DHT22;45374;52.746;6.304;2023-11-21T04:51:05;9.10;99.90
59556;DHT22;45374;52.746;6.304;2023-11-21T04:53:32;9.10;99.90
59556;DHT22;45374;52.746;6.304;2023-11-21T04:55:57;9.10;99.90
59556;DHT22;45374;52.746;6.304;2023-11-21T04:58:24;9.10;99.90
59556;DHT22;45374;52.746;6.304;2023-11-21T05:00:49;9.10;99.90
59556;DHT22;45374;52.746;6.304;2023-11-21T05:03:15;9.10;99.90
59556;DHT22;45374;52.746;6.304;2023-11-21T05:05:40;9.10;99.90
59556;DHT22;45374;52.746;6.304;2023-11-21T05:08:06;9.10;99.90
59556;DHT22;45374;52.746;6.304;2023-11-21T05:10:31;9.10;99.90
59556;DHT22;45374;52.746;6.304;2023-11-21T05:12:57;9.10;99.90
59556;DHT22;45374;52.746;6.304;2023-11-21T05:15:24;9.10;99.90
59556;DHT22;45374;52.746;6.304;2023-11-21T05:17:50;9.20;99.90
59556;DHT22;45374;52.746;6.304;2023-11-21T05:20:17;9.20;99.90
59556;DHT22;45374;52.746;6.304;2023-11-21T05:22:46;9.20;99.90
59556;DHT22;45374;52.746;6.304;2023-11-21T05:25:13;9.10;99.90
59556;DHT22;45374;52.746;6.304;2023-11-21T05:27:39;9.10;99.90
59556;DHT22;45374;52.746;6.304;2023-11-21T05:30:05;9.10;99.90
59556;DHT22;45374;52.746;6.304;2023-11-21T05:32:32;9.10;99.90
59556;DHT22;45374;52.746;6.304;2023-11-21T05:34:57;9.20;99.90
59556;DHT22;45374;52.746;6.304;2023-11-21T05:37:24;9.20;99.90
59556;DHT22;45374;52.746;6.304;2023-11-21T05:39:51;9.20;99.90
59556;DHT22;45374;52.746;6.304;2023-11-21T05:42:16;9.20;99.90
59556;DHT22;45374;52.746;6.304;2023-11-21T05:44:42;9.20;99.90
59556;DHT22;45374;52.746;6.304;2023-11-21T05:47:11;9.20;99.90
59556;DHT22;45374;52.746;6.304;2023-11-21T05:49:37;9.20;99.90
59556;DHT22;45374;52.746;6.304;2023-11-21T05:52:02;9.20;99.90
59556;DHT22;45374;52.746;6.304;2023-11-21T05:54:28;9.20;99.90
59556;DHT22;45374;52.746;6.304;2023-11-21T05:56:54;9.20;99.90
59556;DHT22;45374;52.746;6.304;2023-11-21T05:59:19;9.20;99.90
59556;DHT22;45374;52.746;6.304;2023-11-21T06:01:45;9.20;99.90
59556;DHT22;45374;52.746;6.304;2023-11-21T06:04:11;9.20;99.90
59556;DHT22;45374;52.746;6.304;2023-11-21T06:06:38;9.20;99.90
59556;DHT22;45374;52.746;6.304;2023-11-21T06:09:04;9.20;99.90
59556;DHT22;45374;52.746;6.304;2023-11-21T06:11:31;9.20;99.90
59556;DHT22;45374;52.746;6.304;2023-11-21T06:13:57;9.20;99.90
59556;DHT22;45374;52.746;6.304;2023-11-21T06:16:23;9.20;99.90
59556;DHT22;45374;52.746;6.304;2023-11-21T06:18:49;9.20;99.90
59556;DHT22;45374;52.746;6.304;2023-11-21T06:21:15;9.20;99.90
59556;DHT22;45374;52.746;6.304;2023-11-21T06:23:42;9.20;99.90
59556;DHT22;45374;52.746;6.304;2023-11-21T06:26:08;9.20;99.90
59556;DHT22;45374;52.746;6.304;2023-11-21T06:28:34;9.20;99.90
59556;DHT22;45374;52.746;6.304;2023-11-21T06:31:01;9.20;99.90
59556;DHT22;45374;52.746;6.304;2023-11-21T06:33:31;9.20;99.90
59556;DHT22;45374;52.746;6.304;2023-11-21T06:35:56;9.20;99.90
59556;DHT22;45374;52.746;6.304;2023-11-21T06:38:22;9.20;99.90
59556;DHT22;45374;52.746;6.304;2023-11-21T06:40:48;9.20;99.90
59556;DHT22;45374;52.746;6.304;2023-11-21T06:43:13;9.20;99.90
59556;DHT22;45374;52.746;6.304;2023-11-21T06:45:39;9.20;99.90
59556;DHT22;45374;52.746;6.304;2023-11-21T06:48:05;9.20;99.90
59556;DHT22;45374;52.746;6.304;2023-11-21T12:25:02;8.80;99.90
59556;DHT22;45374;52.746;6.304;2023-11-21T12:27:29;8.80;99.90
59556;DHT22;45374;52.746;6.304;2023-11-21T12:29:54;8.90;99.90
59556;DHT22;45374;52.746;6.304;2023-11-21T12:32:21;8.90;99.90
59556;DHT22;45374;52.746;6.304;2023-11-21T12:34:47;8.90;99.90
59556;DHT22;45374;52.746;6.304;2023-11-21T12:37:12;8.80;99.90
59556;DHT22;45374;52.746;6.304;2023-11-21T12:39:38;8.80;99.90
59556;DHT22;45374;52.746;6.304;2023-11-21T12:42:04;8.70;99.90
59556;DHT22;45374;52.746;6.304;2023-11-21T12:44:30;8.60;99.90
59556;DHT22;45374;52.746;6.304;2023-11-21T12:46:55;8.60;99.90
59556;DHT22;45374;52.746;6.304;2023-11-21T12:49:21;8.50;99.90
59556;DHT22;45374;52.746;6.304;2023-11-21T12:51:47;8.50;99.90
59556;DHT22;45374;52.746;6.304;2023-11-21T12:54:13;8.50;99.90
59556;DHT22;45374;52.746;6.304;2023-11-21T12:56:39;8.40;99.90
59556;DHT22;45374;52.746;6.304;2023-11-21T12:59:04;8.50;99.90
59556;DHT22;45374;52.746;6.304;2023-11-21T13:01:30;8.50;99.90
59556;DHT22;45374;52.746;6.304;2023-11-21T13:03:57;8.50;99.90
59556;DHT22;45374;52.746;6.304;2023-11-21T13:06:23;8.50;99.90
59556;DHT22;45374;52.746;6.304;2023-11-21T13:08:52;8.60;99.90
59556;DHT22;45374;52.746;6.304;2023-11-21T13:11:18;8.60;99.90
59556;DHT22;45374;52.746;6.304;2023-11-21T13:13:43;8.60;99.90
59556;DHT22;45374;52.746;6.304;2023-11-21T13:16:09;8.70;99.90
59556;DHT22;45374;52.746;6.304;2023-11-21T13:18:35;8.70;99.90
59556;DHT22;45374;52.746;6.304;2023-11-21T13:21:05;8.80;99.90
59556;DHT22;45374;52.746;6.304;2023-11-21T13:23:35;8.90;99.90
59556;DHT22;45374;52.746;6.304;2023-11-21T13:26:06;8.90;99.90
59556;DHT22;45374;52.746;6.304;2023-11-21T13:28:32;8.90;99.90
59556;DHT22;45374;52.746;6.304;2023-11-21T13:31:03;8.90;99.90
59556;DHT22;45374;52.746;6.304;2023-11-21T13:33:46;8.90;99.90
59556;DHT22;45374;52.746;6.304;2023-11-21T13:36:16;8.80;99.90
59556;DHT22;45374;52.746;6.304;2023-11-21T13:38:48;8.70;99.90
59556;DHT22;45374;52.746;6.304;2023-11-21T13:41:14;8.70;99.90
59556;DHT22;45374;52.746;6.304;2023-11-21T13:43:40;8.60;99.90
59556;DHT22;45374;52.746;6.304;2023-11-21T13:46:09;8.60;99.90
59556;DHT22;45374;52.746;6.304;2023-11-21T13:48:47;8.60;99.90
59556;DHT22;45374;52.746;6.304;2023-11-21T13:51:19;8.50;99.90
59556;DHT22;45374;52.746;6.304;2023-11-21T13:53:48;8.50;99.90
59556;DHT22;45374;52.746;6.304;2023-11-21T13:56:16;8.40;99.90
59556;DHT22;45374;52.746;6.304;2023-11-21T13:58:49;8.30;99.90
59556;DHT22;45374;52.746;6.304;2023-11-21T14:01:20;8.30;99.90
59556;DHT22;45374;52.746;6.304;2023-11-21T14:04:17;8.20;99.90
59556;DHT22;45374;52.746;6.304;2023-11-21T14:06:43;8.10;99.90
59556;DHT22;45374;52.746;6.304;2023-11-21T14:09:21;8.00;99.90
59556;DHT22;45374;52.746;6.304;2023-11-21T14:11:54;7.90;99.90
59556;DHT22;45374;52.746;6.304;2023-11-21T14:14:26;7.90;99.90
59556;DHT22;45374;52.746;6.304;2023-11-21T14:16:52;7.90;99.90
59556;DHT22;45374;52.746;6.304;2023-11-21T14:19:18;7.80;99.90
59556;DHT22;45374;52.746;6.304;2023-11-21T14:21:45;7.80;99.90
59556;DHT22;45374;52.746;6.304;2023-11-21T14:24:11;7.80;99.90
59556;DHT22;45374;52.746;6.304;2023-11-21T14:26:43;7.80;99.90
59556;DHT22;45374;52.746;6.304;2023-11-21T14:29:11;7.90;99.90
59556;DHT22;45374;52.746;6.304;2023-11-21T14:31:40;7.80;99.90
59556;DHT22;45374;52.746;6.304;2023-11-21T14:34:06;7.80;99.90
59556;DHT22;45374;52.746;6.304;2023-11-21T14:36:33;7.80;99.90
59556;DHT22;45374;52.746;6.304;2023-11-21T14:38:58;7.80;99.90
59556;DHT22;45374;52.746;6.304;2023-11-21T14:41:24;7.80;99.90
59556;DHT22;45374;52.746;6.304;2023-11-21T14:43:51;7.80;99.90
59556;DHT22;45374;52.746;6.304;2023-11-21T14:46:16;7.70;99.90
59556;DHT22;45374;52.746;6.304;2023-11-21T14:48:45;7.80;99.90
59556;DHT22;45374;52.746;6.304;2023-11-21T14:51:28;7.80;99.90
59556;DHT22;45374;52.746;6.304;2023-11-21T14:54:00;7.80;99.90
59556;DHT22;45374;52.746;6.304;2023-11-21T14:56:32;7.80;99.90
59556;DHT22;45374;52.746;6.304;2023-11-21T14:59:00;7.80;99.90
59556;DHT22;45374;52.746;6.304;2023-11-21T15:01:34;7.90;99.90
59556;DHT22;45374;52.746;6.304;2023-11-21T15:04:19;7.90;99.90
59556;DHT22;45374;52.746;6.304;2023-11-21T15:07:04;7.80;99.90
59556;DHT22;45374;52.746;6.304;2023-11-21T15:09:30;7.90;99.90
59556;DHT22;45374;52.746;6.304;2023-11-21T15:12:02;7.90;99.90
59556;DHT22;45374;52.746;6.304;2023-11-21T15:14:47;7.90;99.90
59556;DHT22;45374;52.746;6.304;2023-11-21T15:17:15;7.90;99.90
59556;DHT22;45374;52.746;6.304;2023-11-21T15:19:49;7.90;99.90
59556;DHT22;45374;52.746;6.304;2023-11-21T15:22:16;7.90;99.90
59556;DHT22;45374;52.746;6.304;2023-11-21T15:24:42;7.90;99.90
59556;DHT22;45374;52.746;6.304;2023-11-21T15:27:09;7.80;99.90
59556;DHT22;45374;52.746;6.304;2023-11-21T15:29:35;7.80;99.90
59556;DHT22;45374;52.746;6.304;2023-11-21T15:32:00;7.80;99.90
59556;DHT22;45374;52.746;6.304;2023-11-21T15:34:26;7.80;99.90
59556;DHT22;45374;52.746;6.304;2023-11-21T15:36:54;7.70;99.90
59556;DHT22;45374;52.746;6.304;2023-11-21T15:39:20;7.70;99.90
59556;DHT22;45374;52.746;6.304;2023-11-21T15:41:53;7.70;99.90
59556;DHT22;45374;52.746;6.304;2023-11-21T15:44:19;7.70;99.90
59556;DHT22;45374;52.746;6.304;2023-11-21T15:46:45;7.70;99.90
59556;DHT22;45374;52.746;6.304;2023-11-21T15:49:11;7.70;99.90
59556;DHT22;45374;52.746;6.304;2023-11-21T15:51:43;7.60;99.90
59556;DHT22;45374;52.746;6.304;2023-11-21T15:54:12;7.60;99.90
59556;DHT22;45374;52.746;6.304;2023-11-21T15:56:38;7.50;99.90
59556;DHT22;45374;52.746;6.304;2023-11-21T15:59:04;7.60;99.90
59556;DHT22;45374;52.746;6.304;2023-11-21T16:01:30;7.50;99.90
59556;DHT22;45374;52.746;6.304;2023-11-21T16:03:56;7.50;99.90
59556;DHT22;45374;52.746;6.304;2023-11-21T16:06:21;7.50;99.90
59556;DHT22;45374;52.746;6.304;2023-11-21T16:08:47;7.50;99.90
59556;DHT22;45374;52.746;6.304;2023-11-21T16:11:13;7.40;99.90
59556;DHT22;45374;52.746;6.304;2023-11-21T16:13:39;7.40;99.90
59556;DHT22;45374;52.746;6.304;2023-11-21T16:16:06;7.40;99.90
59556;DHT22;45374;52.746;6.304;2023-11-21T16:18:32;7.40;99.90
59556;DHT22;45374;52.746;6.304;2023-11-21T16:20:57;7.40;99.90
59556;DHT22;45374;52.746;6.304;2023-11-21T16:23:23;7.40;99.90
59556;DHT22;45374;52.746;6.304;2023-11-21T16:25:49;7.40;99.90
59556;DHT22;45374;52.746;6.304;2023-11-21T16:28:23;7.40;99.90
59556;DHT22;45374;52.746;6.304;2023-11-21T16:30:50;7.40;99.90
59556;DHT22;45374;52.746;6.304;2023-11-21T16:33:16;7.40;99.90
59556;DHT22;45374;52.746;6.304;2023-11-21T16:35:41;7.40;99.90
59556;DHT22;45374;52.746;6.304;2023-11-21T16:38:07;7.40;99.90
59556;DHT22;45374;52.746;6.304;2023-11-21T16:40:33;7.40;99.90
59556;DHT22;45374;52.746;6.304;2023-11-21T16:42:59;7.40;99.90
59556;DHT22;45374;52.746;6.304;2023-11-21T16:45:25;7.40;99.90
59556;DHT22;45374;52.746;6.304;2023-11-21T16:47:50;7.30;99.90
59556;DHT22;45374;52.746;6.304;2023-11-21T16:50:16;7.20;99.90
59556;DHT22;45374;52.746;6.304;2023-11-21T16:52:41;7.20;99.90
59556;DHT22;45374;52.746;6.304;2023-11-21T16:55:09;7.10;99.90
59556;DHT22;45374;52.746;6.304;2023-11-21T16:57:38;7.00;99.90
59556;DHT22;45374;52.746;6.304;2023-11-21T17:00:05;6.90;99.90
59556;DHT22;45374;52.746;6.304;2023-11-21T17:02:33;6.80;99.90
59556;DHT22;45374;52.746;6.304;2023-11-21T17:04:58;6.80;99.90
59556;DHT22;45374;52.746;6.304;2023-11-21T17:07:24;6.70;99.90
59556;DHT22;45374;52.746;6.304;2023-11-21T17:09:50;6.60;99.90
59556;DHT22;45374;52.746;6.304;2023-11-21T17:12:16;6.50;99.90
59556;DHT22;45374;52.746;6.304;2023-11-21T17:14:41;6.40;99.90
59556;DHT22;45374;52.746;6.304;2023-11-21T17:17:09;6.30;99.90
59556;DHT22;45374;52.746;6.304;2023-11-21T17:19:36;6.20;99.90
59556;DHT22;45374;52.746;6.304;2023-11-21T17:22:02;6.20;99.90
59556;DHT22;45374;52.746;6.304;2023-11-21T17:24:28;6.00;99.90
59556;DHT22;45374;52.746;6.304;2023-11-21T17:26:54;6.00;99.90
59556;DHT22;45374;52.746;6.304;2023-11-21T17:29:19;5.90;99.90
59556;DHT22;45374;52.746;6.304;2023-11-21T17:31:45;5.80;99.90
59556;DHT22;45374;52.746;6.304;2023-11-21T17:34:11;5.80;99.90
59556;DHT22;45374;52.746;6.304;2023-11-21T17:36:36;5.70;99.90
59556;DHT22;45374;52.746;6.304;2023-11-21T17:39:03;5.60;99.90
59556;DHT22;45374;52.746;6.304;2023-11-21T17:41:34;5.60;99.90
59556;DHT22;45374;52.746;6.304;2023-11-21T17:43:59;5.50;99.90
59556;DHT22;45374;52.746;6.304;2023-11-21T17:46:27;5.40;99.90
59556;DHT22;45374;52.746;6.304;2023-11-21T17:48:52;5.30;99.90
59556;DHT22;45374;52.746;6.304;2023-11-21T17:51:18;5.30;99.90
59556;DHT22;45374;52.746;6.304;2023-11-21T17:53:43;5.30;99.90
59556;DHT22;45374;52.746;6.304;2023-11-21T17:56:15;5.30;99.90
59556;DHT22;45374;52.746;6.304;2023-11-21T17:58:41;5.20;99.90
59556;DHT22;45374;52.746;6.304;2023-11-21T18:01:07;5.20;99.90
59556;DHT22;45374;52.746;6.304;2023-11-21T18:03:34;5.20;99.90
59556;DHT22;45374;52.746;6.304;2023-11-21T18:05:59;5.10;99.90
59556;DHT22;45374;52.746;6.304;2023-11-21T18:08:25;5.10;99.90
59556;DHT22;45374;52.746;6.304;2023-11-21T18:10:50;5.10;99.90
59556;DHT22;45374;52.746;6.304;2023-11-21T18:13:17;5.00;99.90
59556;DHT22;45374;52.746;6.304;2023-11-21T18:15:44;5.00;99.90
59556;DHT22;45374;52.746;6.304;2023-11-21T18:18:09;5.00;99.90
59556;DHT22;45374;52.746;6.304;2023-11-21T18:20:35;5.00;99.90
59556;DHT22;45374;52.746;6.304;2023-11-21T18:23:01;4.90;99.90
59556;DHT22;45374;52.746;6.304;2023-11-21T18:25:26;4.90;99.90
59556;DHT22;45374;52.746;6.304;2023-11-21T18:27:54;4.90;99.90
59556;DHT22;45374;52.746;6.304;2023-11-21T18:30:20;4.90;99.90
59556;DHT22;45374;52.746;6.304;2023-11-21T18:32:47;4.90;99.90
59556;DHT22;45374;52.746;6.304;2023-11-21T18:35:12;4.90;99.90
59556;DHT22;45374;52.746;6.304;2023-11-21T18:37:38;4.80;99.90
59556;DHT22;45374;52.746;6.304;2023-11-21T18:40:04;4.80;99.90
59556;DHT22;45374;52.746;6.304;2023-11-21T18:42:30;4.80;99.90
59556;DHT22;45374;52.746;6.304;2023-11-21T18:44:56;4.70;99.90
59556;DHT22;45374;52.746;6.304;2023-11-21T18:47:21;4.70;99.90
59556;DHT22;45374;52.746;6.304;2023-11-21T18:49:48;4.70;99.90
59556;DHT22;45374;52.746;6.304;2023-11-21T18:52:14;4.70;99.90
59556;DHT22;45374;52.746;6.304;2023-11-21T18:54:43;4.60;99.90
59556;DHT22;45374;52.746;6.304;2023-11-21T18:57:09;4.70;99.90
59556;DHT22;45374;52.746;6.304;2023-11-21T18:59:35;4.70;99.90
59556;DHT22;45374;52.746;6.304;2023-11-21T19:02:02;4.70;99.90
59556;DHT22;45374;52.746;6.304;2023-11-21T19:04:28;4.70;99.90
59556;DHT22;45374;52.746;6.304;2023-11-21T19:06:54;4.60;99.90
59556;DHT22;45374;52.746;6.304;2023-11-21T19:09:25;4.60;99.90
59556;DHT22;45374;52.746;6.304;2023-11-21T19:11:50;4.60;99.90
59556;DHT22;45374;52.746;6.304;2023-11-21T19:14:16;4.70;99.90
59556;DHT22;45374;52.746;6.304;2023-11-21T19:16:42;4.70;99.90
59556;DHT22;45374;52.746;6.304;2023-11-21T19:19:07;4.70;99.90
59556;DHT22;45374;52.746;6.304;2023-11-21T19:21:33;4.70;99.90
59556;DHT22;45374;52.746;6.304;2023-11-21T19:23:59;4.70;99.90
59556;DHT22;45374;52.746;6.304;2023-11-21T19:26:24;4.70;99.90
59556;DHT22;45374;52.746;6.304;2023-11-21T19:28:50;4.70;99.90
59556;DHT22;45374;52.746;6.304;2023-11-21T19:31:17;4.70;99.90
59556;DHT22;45374;52.746;6.304;2023-11-21T19:33:43;4.80;99.90
59556;DHT22;45374;52.746;6.304;2023-11-21T19:36:10;4.80;99.90
59556;DHT22;45374;52.746;6.304;2023-11-21T19:38:35;4.80;99.90
59556;DHT22;45374;52.746;6.304;2023-11-21T19:41:01;4.80;99.90
59556;DHT22;45374;52.746;6.304;2023-11-21T19:43:28;4.80;99.90
59556;DHT22;45374;52.746;6.304;2023-11-21T19:45:54;4.80;99.90
59556;DHT22;45374;52.746;6.304;2023-11-21T19:48:21;4.90;99.90
59556;DHT22;45374;52.746;6.304;2023-11-21T19:50:49;4.90;99.90
59556;DHT22;45374;52.746;6.304;2023-11-21T19:53:15;4.80;99.90
59556;DHT22;45374;52.746;6.304;2023-11-21T19:55:40;4.90;99.90
59556;DHT22;45374;52.746;6.304;2023-11-21T19:58:06;4.90;99.90
59556;DHT22;45374;52.746;6.304;2023-11-21T20:00:32;4.90;99.90
59556;DHT22;45374;52.746;6.304;2023-11-21T20:02:58;4.90;99.90
59556;DHT22;45374;52.746;6.304;2023-11-21T20:05:23;4.90;99.90
59556;DHT22;45374;52.746;6.304;2023-11-21T20:07:49;4.90;99.90
59556;DHT22;45374;52.746;6.304;2023-11-21T20:10:15;4.90;99.90
59556;DHT22;45374;52.746;6.304;2023-11-21T20:12:42;5.00;99.90
59556;DHT22;45374;52.746;6.304;2023-11-21T20:15:09;4.90;99.90
59556;DHT22;45374;52.746;6.304;2023-11-21T20:17:35;4.90;99.90
59556;DHT22;45374;52.746;6.304;2023-11-21T20:20:03;4.90;99.90
59556;DHT22;45374;52.746;6.304;2023-11-21T20:22:29;4.90;99.90
59556;DHT22;45374;52.746;6.304;2023-11-21T20:24:55;4.90;99.90
59556;DHT22;45374;52.746;6.304;2023-11-21T20:27:22;4.90;99.90
59556;DHT22;45374;52.746;6.304;2023-11-21T20:29:48;4.90;99.90
59556;DHT22;45374;52.746;6.304;2023-11-21T20:32:13;4.90;99.90
59556;DHT22;45374;52.746;6.304;2023-11-21T20:34:39;4.90;99.90
59556;DHT22;45374;52.746;6.304;2023-11-21T20:37:05;4.80;99.90
59556;DHT22;45374;52.746;6.304;2023-11-21T20:39:31;4.80;99.90
59556;DHT22;45374;52.746;6.304;2023-11-21T20:41:59;4.80;99.90
59556;DHT22;45374;52.746;6.304;2023-11-21T20:44:25;4.80;99.90
59556;DHT22;45374;52.746;6.304;2023-11-21T20:46:50;4.80;99.90
59556;DHT22;45374;52.746;6.304;2023-11-21T20:49:18;4.80;99.90
59556;DHT22;45374;52.746;6.304;2023-11-21T20:51:44;4.80;99.90
59556;DHT22;45374;52.746;6.304;2023-11-21T20:54:10;4.70;99.90
59556;DHT22;45374;52.746;6.304;2023-11-21T20:56:36;4.60;99.90
59556;DHT22;45374;52.746;6.304;2023-11-21T20:59:02;4.60;99.90
59556;DHT22;45374;52.746;6.304;2023-11-21T21:01:34;4.60;99.90
59556;DHT22;45374;52.746;6.304;2023-11-21T21:04:00;4.60;99.90
59556;DHT22;45374;52.746;6.304;2023-11-21T21:06:30;4.70;99.90
59556;DHT22;45374;52.746;6.304;2023-11-21T21:08:55;4.70;99.90
59556;DHT22;45374;52.746;6.304;2023-11-21T21:11:23;4.70;99.90
59556;DHT22;45374;52.746;6.304;2023-11-21T21:13:49;4.80;99.90
59556;DHT22;45374;52.746;6.304;2023-11-21T21:16:19;4.80;99.90
59556;DHT22;45374;52.746;6.304;2023-11-21T21:18:55;4.80;99.90
59556;DHT22;45374;52.746;6.304;2023-11-21T21:21:21;4.90;99.90